Time;durP1;ratioP1;P1;durP2;ratioP2;P2;SDS_P1;SDS_P2;PMS_P1;PMS_P2;Temp;Humidity;BMP_temperature;BMP_pressure;BME280_temperature;BME280_humidity;BME280_pressure;Samples;Min_cycle;Max_cycle;Signal;HPM_P1;HPM_P2
2022/09/18 00:01:46;;;;;;;2.07;0.90;;;;;;;;;;5066879;28;20252;-61
2022/09/18 00:04:18;;;;;;;1.73;0.83;;;;;;;;;;5050440;28;20741;-61
2022/09/18 00:06:50;;;;;;;2.23;0.80;;;;;;;;;;5044422;28;20186;-61
2022/09/18 00:09:17;;;;;;;1.70;0.70;;;;;;;;;;5068943;28;20189;-62
2022/09/18 00:11:48;;;;;;;0.87;0.50;;;;;;;;;;5086119;28;20205;-61
2022/09/18 00:14:21;;;;;;;1.10;0.57;;;;;;;;;;5070434;28;20608;-62
2022/09/18 00:16:54;;;;;;;1.27;0.70;;;;;;;;;;5062575;28;20201;-62
2022/09/18 00:19:23;;;;;;;2.00;0.70;;;;;;;;;;5078911;28;20185;-63
2022/09/18 00:21:54;;;;;;;1.37;0.77;;;;;;;;;;5068273;28;20276;-63
2022/09/18 00:24:28;;;;;;;3.10;0.77;;;;;;;;;;5084625;28;20246;-62
2022/09/18 00:26:58;;;;;;;1.43;0.93;;;;;;;;;;5064619;28;20335;-62
2022/09/18 00:29:29;;;;;;;1.73;0.80;;;;;;;;;;5039000;28;20264;-62
2022/09/18 00:32:01;;;;;;;1.87;0.47;;;;;;;;;;5073813;28;20591;-62
2022/09/18 00:34:34;;;;;;;0.97;0.50;;;;;;;;;;5073856;28;20190;-63
2022/09/18 00:37:06;;;;;;;2.40;0.93;;;;;;;;;;5079095;28;20194;-62
2022/09/18 00:39:35;;;;;;;2.73;1.03;;;;;;;;;;5065590;28;20221;-62
2022/09/18 00:42:05;;;;;;;2.60;0.50;;;;;;;;;;5065590;28;20223;-63
2022/09/18 00:44:45;;;;;;;0.70;0.50;;;;;;;;;;5069609;28;20190;-62
2022/09/18 00:47:31;;;;;;;1.67;0.40;;;;;;;;;;5047178;28;20290;-62
2022/09/18 00:50:03;;;;;;;1.80;0.73;;;;;;;;;;5062279;28;20660;-63
2022/09/18 00:52:48;;;;;;;1.00;0.67;;;;;;;;;;5031179;28;20207;-62
2022/09/18 00:55:22;;;;;;;1.90;0.70;;;;;;;;;;5074389;28;20236;-63
2022/09/18 00:57:58;;;;;;;1.10;0.60;;;;;;;;;;5068290;28;20251;-62
2022/09/18 01:00:31;;;;;;;2.50;0.70;;;;;;;;;;5045904;28;20245;-62
2022/09/18 01:03:02;;;;;;;1.27;0.60;;;;;;;;;;5062215;28;20800;-62
2022/09/18 01:05:48;;;;;;;1.17;0.80;;;;;;;;;;5057701;28;20295;-62
2022/09/18 01:08:24;;;;;;;2.73;0.60;;;;;;;;;;5050605;28;20217;-62
2022/09/18 01:11:13;;;;;;;1.30;0.60;;;;;;;;;;5048730;28;20201;-63
2022/09/18 01:14:00;;;;;;;1.27;0.57;;;;;;;;;;5068668;28;20206;-62
2022/09/18 01:16:48;;;;;;;1.20;0.50;;;;;;;;;;5076346;28;20233;-63
2022/09/18 01:19:18;;;;;;;1.00;0.60;;;;;;;;;;5076544;28;20200;-63
2022/09/18 01:22:12;;;;;;;1.27;0.50;;;;;;;;;;5065767;28;20213;-63
2022/09/18 01:25:08;;;;;;;1.30;0.60;;;;;;;;;;5045674;28;20263;-63
2022/09/18 01:27:53;;;;;;;1.77;0.80;;;;;;;;;;5033280;28;20663;-62
2022/09/18 01:30:22;;;;;;;2.10;0.60;;;;;;;;;;5056217;28;20215;-63
2022/09/18 01:33:04;;;;;;;1.97;0.70;;;;;;;;;;5075856;28;20204;-63
2022/09/18 01:35:45;;;;;;;1.10;0.53;;;;;;;;;;5056067;28;20198;-63
2022/09/18 01:38:47;;;;;;;1.00;0.57;;;;;;;;;;5049935;28;20257;-63
2022/09/18 01:41:22;;;;;;;0.90;0.50;;;;;;;;;;5050090;28;20205;-63
2022/09/18 01:44:15;;;;;;;1.13;0.47;;;;;;;;;;5074220;28;20188;-63
2022/09/18 01:46:43;;;;;;;1.00;0.80;;;;;;;;;;5066513;28;20211;-62
2022/09/18 01:49:16;;;;;;;1.00;0.60;;;;;;;;;;5052147;28;20248;-63
2022/09/18 01:51:53;;;;;;;1.07;0.40;;;;;;;;;;5047439;28;20205;-63
2022/09/18 01:54:37;;;;;;;0.80;0.47;;;;;;;;;;5048711;28;20217;-62
2022/09/18 01:57:17;;;;;;;1.83;0.63;;;;;;;;;;5067766;28;20213;-63
2022/09/18 02:00:05;;;;;;;1.10;0.53;;;;;;;;;;5081782;28;20224;-63
2022/09/18 02:02:40;;;;;;;1.87;0.83;;;;;;;;;;5057502;28;20244;-62
2022/09/18 02:05:21;;;;;;;0.90;0.60;;;;;;;;;;5052466;28;20230;-62
2022/09/18 02:07:53;;;;;;;1.00;0.77;;;;;;;;;;5044662;28;20194;-63
2022/09/18 02:10:25;;;;;;;0.37;0.30;;;;;;;;;;5047019;28;20189;-62
2022/09/18 02:12:56;;;;;;;1.77;0.60;;;;;;;;;;5045714;28;20198;-63
2022/09/18 02:15:28;;;;;;;1.17;0.63;;;;;;;;;;5074989;28;20702;-62
2022/09/18 02:18:00;;;;;;;1.90;0.80;;;;;;;;;;5046738;28;20230;-63
2022/09/18 02:20:36;;;;;;;1.27;0.50;;;;;;;;;;5078673;28;20194;-62
2022/09/18 02:23:10;;;;;;;1.40;0.50;;;;;;;;;;5034287;28;20240;-63
2022/09/18 02:25:54;;;;;;;1.17;0.60;;;;;;;;;;5047746;28;20187;-62
2022/09/18 02:28:36;;;;;;;1.53;0.50;;;;;;;;;;5035568;28;20241;-62
2022/09/18 02:31:07;;;;;;;0.60;0.50;;;;;;;;;;5046998;28;20206;-63
2022/09/18 02:33:39;;;;;;;6.47;0.70;;;;;;;;;;5046883;28;20244;-63
2022/09/18 02:36:29;;;;;;;0.93;0.50;;;;;;;;;;5048595;28;20202;-63
2022/09/18 02:39:29;;;;;;;0.80;0.60;;;;;;;;;;5042991;28;20615;-62
2022/09/18 02:42:07;;;;;;;2.20;1.20;;;;;;;;;;5047609;28;20205;-63
2022/09/18 02:44:43;;;;;;;1.00;0.50;;;;;;;;;;5046302;28;20202;-62
2022/09/18 02:47:49;;;;;;;1.50;0.57;;;;;;;;;;5041248;28;20210;-63
2022/09/18 02:50:37;;;;;;;0.97;0.57;;;;;;;;;;5049095;28;20329;-62
2022/09/18 02:53:10;;;;;;;5.17;0.50;;;;;;;;;;5046907;28;20198;-63
2022/09/18 02:55:43;;;;;;;1.00;0.60;;;;;;;;;;5046837;28;20222;-63
2022/09/18 02:58:22;;;;;;;1.17;0.60;;;;;;;;;;5047196;28;20669;-63
2022/09/18 03:00:55;;;;;;;1.63;0.70;;;;;;;;;;5044497;28;20285;-63
2022/09/18 03:03:39;;;;;;;1.87;0.60;;;;;;;;;;5041410;28;20745;-63
2022/09/18 03:06:12;;;;;;;0.93;0.50;;;;;;;;;;5047942;28;20682;-62
2022/09/18 03:08:43;;;;;;;0.60;0.47;;;;;;;;;;5047206;28;20189;-63
2022/09/18 03:11:13;;;;;;;1.70;0.67;;;;;;;;;;5046663;28;20186;-63
2022/09/18 03:13:45;;;;;;;0.83;0.50;;;;;;;;;;5047651;28;20197;-63
2022/09/18 03:16:18;;;;;;;1.40;0.70;;;;;;;;;;5043359;28;20222;-63
2022/09/18 03:18:49;;;;;;;1.83;0.80;;;;;;;;;;5044240;28;20687;-63
2022/09/18 03:21:26;;;;;;;3.13;0.50;;;;;;;;;;5051068;28;20190;-63
2022/09/18 03:24:00;;;;;;;0.90;0.60;;;;;;;;;;5039291;28;20190;-63
2022/09/18 03:26:33;;;;;;;3.33;0.73;;;;;;;;;;5050281;28;20579;-62
2022/09/18 03:29:09;;;;;;;2.90;0.60;;;;;;;;;;5045611;28;20194;-63
2022/09/18 03:31:46;;;;;;;1.03;0.47;;;;;;;;;;5047432;28;20194;-62
2022/09/18 03:34:18;;;;;;;0.83;0.53;;;;;;;;;;5050295;28;20795;-63
2022/09/18 03:36:49;;;;;;;1.40;0.60;;;;;;;;;;5035799;28;20225;-63
2022/09/18 03:39:31;;;;;;;3.47;0.60;;;;;;;;;;5038901;28;20250;-62
2022/09/18 03:42:06;;;;;;;1.10;0.40;;;;;;;;;;5046897;28;20199;-63
2022/09/18 03:44:34;;;;;;;0.87;0.50;;;;;;;;;;5049624;28;20194;-62
2022/09/18 03:47:03;;;;;;;0.60;0.40;;;;;;;;;;5049203;28;20206;-63
2022/09/18 03:49:32;;;;;;;1.60;0.60;;;;;;;;;;5051390;28;20256;-63
2022/09/18 03:52:04;;;;;;;1.50;0.47;;;;;;;;;;5048210;28;20214;-62
2022/09/18 03:54:47;;;;;;;0.97;0.40;;;;;;;;;;5047658;28;20221;-62
2022/09/18 03:57:19;;;;;;;1.03;0.50;;;;;;;;;;5049628;28;20234;-62
2022/09/18 03:59:50;;;;;;;0.70;0.60;;;;;;;;;;5063430;28;20194;-62
2022/09/18 04:02:24;;;;;;;2.07;0.60;;;;;;;;;;5037507;28;20190;-62
2022/09/18 04:04:56;;;;;;;0.90;0.70;;;;;;;;;;5058855;28;20217;-63
2022/09/18 04:07:31;;;;;;;1.23;0.40;;;;;;;;;;5070800;28;20206;-63
2022/09/18 04:10:03;;;;;;;0.70;0.43;;;;;;;;;;5070434;28;20276;-63
2022/09/18 04:12:37;;;;;;;0.50;0.30;;;;;;;;;;5070287;28;20271;-63
2022/09/18 04:15:10;;;;;;;1.00;0.40;;;;;;;;;;5066663;28;20224;-63
2022/09/18 04:17:43;;;;;;;1.67;0.60;;;;;;;;;;5086159;28;20228;-63
2022/09/18 04:20:15;;;;;;;2.03;0.70;;;;;;;;;;5065971;28;20209;-66
2022/09/18 04:22:45;;;;;;;1.27;0.60;;;;;;;;;;5083330;28;20678;-63
2022/09/18 04:25:17;;;;;;;0.60;0.40;;;;;;;;;;5070579;28;20204;-62
2022/09/18 04:27:47;;;;;;;1.10;0.40;;;;;;;;;;5065956;28;20221;-62
2022/09/18 04:30:18;;;;;;;0.70;0.50;;;;;;;;;;5069585;28;20619;-62
2022/09/18 04:32:51;;;;;;;0.80;0.50;;;;;;;;;;5071013;28;20194;-63
2022/09/18 04:35:22;;;;;;;0.63;0.40;;;;;;;;;;5084954;28;20266;-62
2022/09/18 04:37:57;;;;;;;1.17;0.50;;;;;;;;;;5069859;28;20208;-63
2022/09/18 04:40:26;;;;;;;1.47;0.53;;;;;;;;;;5067382;28;20209;-63
2022/09/18 04:43:01;;;;;;;0.50;0.40;;;;;;;;;;5067279;28;20209;-62
2022/09/18 04:45:30;;;;;;;0.60;0.43;;;;;;;;;;5069772;28;20197;-63
2022/09/18 04:48:02;;;;;;;0.80;0.40;;;;;;;;;;5084954;28;20216;-62
2022/09/18 04:50:32;;;;;;;1.13;0.60;;;;;;;;;;5069222;28;20190;-62
2022/09/18 04:53:05;;;;;;;2.00;0.47;;;;;;;;;;5069792;28;20641;-63
2022/09/18 04:55:38;;;;;;;1.30;0.50;;;;;;;;;;5068935;28;20200;-63
2022/09/18 04:58:08;;;;;;;0.70;0.40;;;;;;;;;;5069684;28;20271;-63
2022/09/18 05:00:39;;;;;;;1.97;0.40;;;;;;;;;;5056160;28;20201;-63
2022/09/18 05:03:21;;;;;;;1.00;0.40;;;;;;;;;;5069729;28;20310;-62
2022/09/18 05:05:53;;;;;;;1.90;0.50;;;;;;;;;;5069587;28;20240;-62
2022/09/18 05:08:22;;;;;;;1.63;0.67;;;;;;;;;;5054627;28;20812;-63
2022/09/18 05:10:53;;;;;;;1.00;0.50;;;;;;;;;;5074926;28;20709;-62
2022/09/18 05:13:24;;;;;;;0.80;0.40;;;;;;;;;;5067036;28;20204;-62
2022/09/18 05:15:58;;;;;;;1.63;0.60;;;;;;;;;;5066867;28;20276;-63
2022/09/18 05:18:29;;;;;;;1.33;0.57;;;;;;;;;;5080153;28;20187;-63
2022/09/18 05:21:13;;;;;;;0.57;0.30;;;;;;;;;;5088484;28;20189;-63
2022/09/18 05:23:47;;;;;;;0.70;0.50;;;;;;;;;;5052102;28;20201;-62
2022/09/18 05:26:17;;;;;;;1.80;0.40;;;;;;;;;;5080648;28;20197;-62
2022/09/18 05:28:50;;;;;;;1.03;0.57;;;;;;;;;;5043767;28;20213;-62
2022/09/18 05:31:21;;;;;;;2.07;0.43;;;;;;;;;;5059957;28;20211;-63
2022/09/18 05:33:57;;;;;;;1.03;0.47;;;;;;;;;;5068691;28;20763;-63
2022/09/18 05:36:28;;;;;;;1.07;0.30;;;;;;;;;;5065529;28;20206;-63
2022/09/18 05:39:02;;;;;;;0.73;0.40;;;;;;;;;;5051000;28;20217;-62
2022/09/18 05:41:49;;;;;;;1.53;0.40;;;;;;;;;;5068765;28;20213;-63
2022/09/18 05:44:20;;;;;;;0.70;0.37;;;;;;;;;;5067097;28;20607;-63
2022/09/18 05:47:04;;;;;;;1.27;0.60;;;;;;;;;;5069826;28;20225;-62
2022/09/18 05:49:34;;;;;;;1.23;0.50;;;;;;;;;;5076200;28;20202;-62
2022/09/18 05:52:08;;;;;;;0.50;0.40;;;;;;;;;;5075182;28;20206;-62
2022/09/18 05:54:38;;;;;;;2.17;0.40;;;;;;;;;;5065786;28;20189;-62
2022/09/18 05:57:11;;;;;;;1.27;0.50;;;;;;;;;;5068023;28;20221;-62
2022/09/18 05:59:44;;;;;;;1.47;0.50;;;;;;;;;;5067840;28;20472;-62
2022/09/18 06:02:17;;;;;;;1.00;0.30;;;;;;;;;;5061997;28;20186;-63
2022/09/18 06:04:50;;;;;;;1.50;0.67;;;;;;;;;;5045733;28;20727;-63
2022/09/18 06:07:22;;;;;;;2.53;0.63;;;;;;;;;;5047601;28;20198;-63
2022/09/18 06:09:53;;;;;;;2.23;0.73;;;;;;;;;;5047965;28;20212;-62
2022/09/18 06:12:26;;;;;;;1.97;0.80;;;;;;;;;;5048408;28;20629;-62
2022/09/18 06:14:59;;;;;;;1.40;0.70;;;;;;;;;;5041326;28;20206;-62
2022/09/18 06:17:31;;;;;;;1.93;0.73;;;;;;;;;;5047874;28;20256;-62
2022/09/18 06:20:00;;;;;;;3.33;0.60;;;;;;;;;;5064538;28;20256;-63
2022/09/18 06:22:31;;;;;;;1.07;0.47;;;;;;;;;;5047070;28;20198;-62
2022/09/18 06:25:01;;;;;;;2.80;0.40;;;;;;;;;;5035799;28;20271;-62
2022/09/18 06:27:37;;;;;;;1.10;0.60;;;;;;;;;;5038989;28;20663;-63
2022/09/18 06:30:08;;;;;;;1.30;0.57;;;;;;;;;;5051790;28;20221;-62
2022/09/18 06:32:40;;;;;;;1.00;0.70;;;;;;;;;;5032251;28;20186;-62
2022/09/18 06:35:12;;;;;;;1.17;0.40;;;;;;;;;;5047221;28;20217;-62
2022/09/18 06:37:40;;;;;;;1.07;0.50;;;;;;;;;;5031078;28;20265;-63
2022/09/18 06:40:14;;;;;;;2.00;0.57;;;;;;;;;;5026777;28;20280;-63
2022/09/18 06:42:56;;;;;;;2.50;0.40;;;;;;;;;;5039005;28;20198;-63
2022/09/18 06:45:32;;;;;;;2.43;0.80;;;;;;;;;;5052368;28;20585;-62
2022/09/18 06:48:04;;;;;;;0.73;0.33;;;;;;;;;;5055752;28;20335;-63
2022/09/18 06:50:36;;;;;;;1.13;0.70;;;;;;;;;;5047379;28;20190;-62
2022/09/18 06:53:06;;;;;;;1.43;0.50;;;;;;;;;;5044061;28;20200;-62
2022/09/18 06:55:41;;;;;;;2.13;0.50;;;;;;;;;;5040715;28;20294;-63
2022/09/18 06:58:16;;;;;;;1.03;0.43;;;;;;;;;;5046513;28;20213;-62
2022/09/18 07:00:52;;;;;;;2.13;0.80;;;;;;;;;;5028098;28;20296;-62
2022/09/18 07:03:23;;;;;;;2.27;0.63;;;;;;;;;;5040530;28;20202;-62
2022/09/18 07:05:53;;;;;;;1.40;0.60;;;;;;;;;;5043486;28;20242;-62
2022/09/18 07:08:25;;;;;;;1.00;0.67;;;;;;;;;;5046795;28;20192;-62
2022/09/18 07:10:54;;;;;;;4.53;0.70;;;;;;;;;;5041812;28;20208;-62
2022/09/18 07:13:31;;;;;;;2.90;0.67;;;;;;;;;;5043274;28;20186;-62
2022/09/18 07:16:05;;;;;;;1.17;0.40;;;;;;;;;;5043750;28;20210;-62
2022/09/18 07:18:37;;;;;;;1.07;0.50;;;;;;;;;;5045951;28;20194;-62
2022/09/18 07:21:06;;;;;;;1.27;0.50;;;;;;;;;;5040738;28;20559;-62
2022/09/18 07:23:38;;;;;;;2.03;0.60;;;;;;;;;;5027298;28;20202;-62
2022/09/18 07:26:07;;;;;;;1.93;0.80;;;;;;;;;;5040003;28;20183;-62
2022/09/18 07:28:41;;;;;;;1.03;0.50;;;;;;;;;;5039514;28;20271;-63
2022/09/18 07:31:15;;;;;;;1.47;0.63;;;;;;;;;;5046912;28;20210;-63
2022/09/18 07:33:52;;;;;;;1.23;0.60;;;;;;;;;;5049522;28;20202;-63
2022/09/18 07:36:22;;;;;;;1.87;0.40;;;;;;;;;;5047040;28;20202;-62
2022/09/18 07:38:55;;;;;;;1.63;0.70;;;;;;;;;;5038517;28;20191;-63
2022/09/18 07:41:25;;;;;;;2.07;0.67;;;;;;;;;;5061838;28;20214;-63
2022/09/18 07:43:57;;;;;;;2.17;0.50;;;;;;;;;;5049160;28;20194;-63
2022/09/18 07:46:27;;;;;;;1.23;0.43;;;;;;;;;;5048975;28;20675;-62
2022/09/18 07:48:59;;;;;;;1.57;0.60;;;;;;;;;;5042100;28;20276;-63
2022/09/18 07:51:28;;;;;;;2.30;0.77;;;;;;;;;;5045646;28;20206;-63
2022/09/18 07:53:59;;;;;;;3.67;0.70;;;;;;;;;;5017366;28;20278;-62
2022/09/18 07:56:31;;;;;;;2.77;1.00;;;;;;;;;;5040439;28;20198;-63
2022/09/18 07:59:01;;;;;;;4.80;0.80;;;;;;;;;;5035590;28;20864;-62
2022/09/18 08:01:35;;;;;;;3.07;0.73;;;;;;;;;;5047247;28;20759;-62
2022/09/18 08:04:06;;;;;;;1.73;0.90;;;;;;;;;;5050814;28;20656;-62
2022/09/18 08:06:36;;;;;;;5.70;0.80;;;;;;;;;;5044276;28;20190;-62
2022/09/18 08:09:05;;;;;;;3.07;0.80;;;;;;;;;;5034971;28;20211;-62
2022/09/18 08:11:39;;;;;;;1.30;0.63;;;;;;;;;;5045615;28;20205;-62
2022/09/18 08:14:15;;;;;;;2.67;0.93;;;;;;;;;;5023649;28;20211;-63
2022/09/18 08:16:45;;;;;;;2.20;0.83;;;;;;;;;;5040335;28;20581;-62
2022/09/18 08:19:17;;;;;;;2.30;0.73;;;;;;;;;;5043773;28;20195;-63
2022/09/18 08:21:47;;;;;;;2.77;0.83;;;;;;;;;;5041885;28;20214;-63
2022/09/18 08:24:16;;;;;;;1.43;0.60;;;;;;;;;;5035869;28;20226;-62
2022/09/18 08:27:08;;;;;;;2.13;0.77;;;;;;;;;;5036442;28;20236;-62
2022/09/18 08:29:43;;;;;;;1.30;0.50;;;;;;;;;;5034521;28;20727;-62
2022/09/18 08:32:15;;;;;;;1.60;0.53;;;;;;;;;;5047018;28;20201;-62
2022/09/18 08:34:48;;;;;;;2.17;0.90;;;;;;;;;;5044643;28;20194;-62
2022/09/18 08:37:18;;;;;;;3.40;1.00;;;;;;;;;;5031006;28;20226;-63
2022/09/18 08:39:49;;;;;;;5.13;1.03;;;;;;;;;;5038046;28;20227;-62
2022/09/18 08:42:51;;;;;;;20.03;1.40;;;;;;;;;;5020719;28;20323;-65
2022/09/18 08:45:39;;;;;;;16.67;1.50;;;;;;;;;;5032159;28;20194;-64
2022/09/18 08:48:16;;;;;;;10.17;1.40;;;;;;;;;;5066596;28;20210;-64
2022/09/18 08:51:02;;;;;;;12.70;1.77;;;;;;;;;;5040272;28;20689;-65
2022/09/18 08:53:39;;;;;;;25.00;3.30;;;;;;;;;;5043583;28;20194;-64
2022/09/18 08:56:13;;;;;;;55.90;8.43;;;;;;;;;;5048066;28;20190;-65
2022/09/18 08:58:55;;;;;;;65.03;6.93;;;;;;;;;;5055282;28;20210;-63
2022/09/18 09:01:53;;;;;;;51.57;5.43;;;;;;;;;;5050105;28;20190;-63
2022/09/18 09:04:27;;;;;;;41.70;4.87;;;;;;;;;;5040444;28;20220;-63
2022/09/18 09:07:16;;;;;;;31.43;4.63;;;;;;;;;;5044604;28;20285;-63
2022/09/18 09:10:06;;;;;;;32.93;4.43;;;;;;;;;;5071156;28;20237;-62
2022/09/18 09:12:47;;;;;;;19.50;3.00;;;;;;;;;;5054114;28;20896;-63
2022/09/18 09:15:21;;;;;;;20.90;3.30;;;;;;;;;;5037399;28;20273;-62
2022/09/18 09:18:11;;;;;;;27.47;4.03;;;;;;;;;;5043096;28;20209;-62
2022/09/18 09:20:55;;;;;;;25.03;3.27;;;;;;;;;;5045422;28;20226;-62
2022/09/18 09:23:42;;;;;;;20.13;3.50;;;;;;;;;;5061370;28;20198;-62
2022/09/18 09:26:20;;;;;;;20.23;3.10;;;;;;;;;;5044395;28;20202;-63
2022/09/18 09:29:13;;;;;;;15.03;2.73;;;;;;;;;;4990554;28;20226;-62
2022/09/18 09:32:08;;;;;;;19.80;2.90;;;;;;;;;;5031961;28;20705;-62
2022/09/18 09:34:45;;;;;;;79.67;11.47;;;;;;;;;;5017959;28;20193;-62
2022/09/18 09:37:16;;;;;;;49.57;7.43;;;;;;;;;;5028602;28;20209;-62
2022/09/18 09:39:58;;;;;;;46.03;5.93;;;;;;;;;;5030781;28;20202;-62
2022/09/18 09:42:42;;;;;;;33.33;5.10;;;;;;;;;;5022369;28;20625;-62
2022/09/18 09:45:18;;;;;;;30.53;4.83;;;;;;;;;;5051426;28;20232;-62
2022/09/18 09:48:22;;;;;;;28.93;4.20;;;;;;;;;;5048020;28;20224;-63
2022/09/18 09:50:54;;;;;;;50.50;6.97;;;;;;;;;;4986894;28;20214;-63
2022/09/18 09:53:28;;;;;;;32.43;6.37;;;;;;;;;;5036897;28;20578;-62
2022/09/18 09:56:07;;;;;;;33.03;4.67;;;;;;;;;;5045611;28;20224;-64
2022/09/18 09:58:50;;;;;;;25.07;4.40;;;;;;;;;;5056182;28;20648;-63
2022/09/18 10:01:37;;;;;;;21.97;3.93;;;;;;;;;;5046496;28;20640;-63
2022/09/18 10:04:33;;;;;;;16.27;3.63;;;;;;;;;;5044356;28;20201;-63
2022/09/18 10:07:18;;;;;;;23.57;3.30;;;;;;;;;;5039995;28;20240;-63
2022/09/18 10:10:10;;;;;;;14.57;2.90;;;;;;;;;;5044184;28;20202;-63
2022/09/18 10:12:59;;;;;;;17.77;2.73;;;;;;;;;;5043910;28;20252;-63
2022/09/18 10:15:47;;;;;;;18.83;3.27;;;;;;;;;;5041552;28;20225;-63
2022/09/18 10:18:33;;;;;;;21.30;3.10;;;;;;;;;;5057181;28;20276;-63
2022/09/18 10:21:25;;;;;;;14.83;2.17;;;;;;;;;;5034774;28;20206;-63
2022/09/18 10:24:08;;;;;;;17.50;2.73;;;;;;;;;;5035678;28;20225;-63
2022/09/18 10:26:44;;;;;;;12.37;2.40;;;;;;;;;;5042405;28;20195;-63
2022/09/18 10:29:22;;;;;;;14.87;2.43;;;;;;;;;;5058806;28;20190;-63
2022/09/18 10:31:58;;;;;;;11.90;1.93;;;;;;;;;;5046867;28;20202;-63
2022/09/18 10:34:46;;;;;;;7.80;2.10;;;;;;;;;;5027407;28;20265;-63
2022/09/18 10:37:32;;;;;;;12.33;2.57;;;;;;;;;;5045564;28;20210;-63
2022/09/18 10:40:01;;;;;;;9.87;1.97;;;;;;;;;;5043625;28;20239;-63
2022/09/18 10:42:34;;;;;;;8.70;2.10;;;;;;;;;;5044357;28;20731;-62
2022/09/18 10:45:08;;;;;;;9.90;1.97;;;;;;;;;;5042284;28;20194;-63
2022/09/18 10:47:46;;;;;;;7.57;1.77;;;;;;;;;;5045266;28;20217;-63
2022/09/18 10:50:21;;;;;;;6.97;2.33;;;;;;;;;;5043864;28;20213;-63
2022/09/18 10:52:52;;;;;;;15.70;2.40;;;;;;;;;;5037269;28;20237;-63
2022/09/18 10:55:27;;;;;;;6.70;1.70;;;;;;;;;;5044967;28;20204;-63
2022/09/18 10:57:58;;;;;;;10.97;2.07;;;;;;;;;;5044337;28;20218;-63
2022/09/18 11:00:33;;;;;;;11.47;2.23;;;;;;;;;;5042407;28;20252;-63
2022/09/18 11:03:15;;;;;;;5.67;1.73;;;;;;;;;;5036829;28;20226;-62
2022/09/18 11:05:54;;;;;;;10.83;1.70;;;;;;;;;;5042904;28;20291;-63
2022/09/18 11:08:26;;;;;;;10.50;2.33;;;;;;;;;;5060335;28;21607;-63
2022/09/18 11:11:10;;;;;;;10.67;2.17;;;;;;;;;;5034361;28;20199;-64
2022/09/18 11:13:49;;;;;;;4.53;1.50;;;;;;;;;;5040591;28;20194;-64
2022/09/18 11:16:29;;;;;;;9.50;1.90;;;;;;;;;;5051044;28;20214;-64
2022/09/18 11:19:14;;;;;;;8.87;1.77;;;;;;;;;;5039392;28;20214;-63
2022/09/18 11:21:49;;;;;;;11.97;2.27;;;;;;;;;;5042867;28;20221;-64
2022/09/18 11:24:21;;;;;;;9.90;1.90;;;;;;;;;;5042402;28;20190;-64
2022/09/18 11:26:55;;;;;;;6.73;2.30;;;;;;;;;;5008635;28;20193;-63
2022/09/18 11:29:24;;;;;;;13.10;2.30;;;;;;;;;;5042269;28;20552;-64
2022/09/18 11:31:59;;;;;;;9.03;1.87;;;;;;;;;;5040316;28;20202;-63
2022/09/18 11:34:32;;;;;;;7.27;1.70;;;;;;;;;;5046051;28;20190;-63
2022/09/18 11:37:32;;;;;;;4.70;1.37;;;;;;;;;;5037917;28;20697;-63
2022/09/18 11:40:24;;;;;;;8.30;1.67;;;;;;;;;;5036991;28;20283;-64
2022/09/18 11:43:04;;;;;;;5.33;1.70;;;;;;;;;;5028092;28;20207;-63
2022/09/18 11:45:51;;;;;;;4.50;1.40;;;;;;;;;;5030020;28;20261;-63
2022/09/18 11:48:44;;;;;;;2.50;1.17;;;;;;;;;;5026809;28;20198;-63
2022/09/18 11:51:25;;;;;;;7.60;1.60;;;;;;;;;;5041734;28;20553;-63
2022/09/18 11:54:03;;;;;;;3.97;1.27;;;;;;;;;;5060401;28;20190;-63
2022/09/18 11:56:39;;;;;;;4.57;1.47;;;;;;;;;;5046216;28;20197;-64
2022/09/18 11:59:28;;;;;;;2.87;0.83;;;;;;;;;;5053047;28;20210;-63
2022/09/18 12:02:17;;;;;;;5.60;1.10;;;;;;;;;;5021118;28;20264;-63
2022/09/18 12:05:06;;;;;;;3.20;0.93;;;;;;;;;;5046867;28;20230;-63
2022/09/18 12:07:47;;;;;;;4.10;1.37;;;;;;;;;;5044998;28;20214;-63
2022/09/18 12:10:33;;;;;;;3.80;0.90;;;;;;;;;;5046100;28;20202;-64
2022/09/18 12:13:23;;;;;;;5.30;1.47;;;;;;;;;;5021738;28;20564;-63
2022/09/18 12:15:58;;;;;;;3.83;1.03;;;;;;;;;;5059458;28;20210;-64
2022/09/18 12:18:32;;;;;;;5.70;1.10;;;;;;;;;;5065897;28;20244;-63
2022/09/18 12:21:10;;;;;;;1.77;0.83;;;;;;;;;;5031387;28;20199;-64
2022/09/18 12:23:40;;;;;;;6.27;0.90;;;;;;;;;;5029533;28;20194;-64
2022/09/18 12:26:16;;;;;;;3.00;0.93;;;;;;;;;;5046478;28;20206;-63
2022/09/18 12:28:52;;;;;;;2.63;0.93;;;;;;;;;;5037949;28;20198;-64
2022/09/18 12:31:35;;;;;;;4.47;0.90;;;;;;;;;;5046786;28;20194;-64
2022/09/18 12:34:20;;;;;;;2.87;0.90;;;;;;;;;;5045477;28;20201;-65
2022/09/18 12:36:54;;;;;;;4.37;0.80;;;;;;;;;;5063609;28;20226;-64
2022/09/18 12:39:46;;;;;;;3.97;1.00;;;;;;;;;;5039441;28;20250;-65
2022/09/18 12:42:34;;;;;;;1.77;0.70;;;;;;;;;;5047098;28;20198;-65
2022/09/18 12:45:23;;;;;;;5.70;1.00;;;;;;;;;;5044517;28;20213;-65
2022/09/18 12:48:17;;;;;;;4.40;0.90;;;;;;;;;;5047726;28;20591;-65
2022/09/18 12:50:47;;;;;;;6.73;1.37;;;;;;;;;;5034049;28;20205;-64
2022/09/18 12:53:35;;;;;;;8.73;1.20;;;;;;;;;;5057510;28;20285;-64
2022/09/18 12:56:07;;;;;;;7.60;1.10;;;;;;;;;;5047722;28;20634;-65
2022/09/18 12:58:53;;;;;;;3.63;1.17;;;;;;;;;;5047639;28;20206;-65
2022/09/18 13:01:53;;;;;;;9.47;1.53;;;;;;;;;;5047227;28;20205;-65
2022/09/18 13:04:44;;;;;;;8.10;1.40;;;;;;;;;;4983947;28;20295;-65
2022/09/18 13:07:36;;;;;;;15.97;2.50;;;;;;;;;;5052501;28;20193;-65
2022/09/18 13:10:17;;;;;;;19.97;3.30;;;;;;;;;;5044933;28;20213;-65
2022/09/18 13:12:59;;;;;;;12.77;2.33;;;;;;;;;;5064525;28;20193;-64
2022/09/18 13:15:42;;;;;;;10.77;2.67;;;;;;;;;;5076295;28;20224;-64
2022/09/18 13:18:31;;;;;;;18.47;3.27;;;;;;;;;;5052347;28;20242;-65
2022/09/18 13:21:05;;;;;;;17.87;2.43;;;;;;;;;;5081578;28;20701;-65
2022/09/18 13:23:40;;;;;;;18.40;2.57;;;;;;;;;;5067439;28;20193;-64
2022/09/18 13:26:15;;;;;;;16.70;2.90;;;;;;;;;;5055914;28;20201;-64
2022/09/18 13:28:49;;;;;;;12.03;2.63;;;;;;;;;;5059280;28;20209;-65
2022/09/18 13:31:36;;;;;;;19.33;3.30;;;;;;;;;;5066502;28;20200;-65
2022/09/18 13:34:18;;;;;;;13.07;3.07;;;;;;;;;;5062327;28;20618;-65
2022/09/18 13:37:06;;;;;;;15.50;2.97;;;;;;;;;;5062853;28;20205;-65
2022/09/18 13:39:47;;;;;;;16.20;2.90;;;;;;;;;;5047181;28;20249;-65
2022/09/18 13:42:40;;;;;;;14.43;2.57;;;;;;;;;;5065543;28;20545;-63
2022/09/18 13:45:19;;;;;;;21.07;3.73;;;;;;;;;;5083639;28;20204;-64
2022/09/18 13:48:16;;;;;;;19.40;2.50;;;;;;;;;;5053529;28;20623;-66
2022/09/18 13:50:56;;;;;;;17.20;2.83;;;;;;;;;;5050850;28;20857;-62
2022/09/18 13:53:42;;;;;;;30.87;3.97;;;;;;;;;;5059267;28;20213;-65
2022/09/18 13:56:14;;;;;;;19.00;3.20;;;;;;;;;;5064994;28;20611;-63
2022/09/18 13:58:48;;;;;;;20.47;3.33;;;;;;;;;;5039118;28;20801;-64
2022/09/18 14:01:39;;;;;;;22.20;2.47;;;;;;;;;;5058893;28;20199;-63
2022/09/18 14:04:28;;;;;;;23.80;3.17;;;;;;;;;;5064193;28;20262;-64
2022/09/18 14:07:01;;;;;;;13.50;2.50;;;;;;;;;;5043877;28;20220;-64
2022/09/18 14:09:46;;;;;;;14.43;2.63;;;;;;;;;;5066692;28;20618;-63
2022/09/18 14:12:33;;;;;;;15.37;2.80;;;;;;;;;;5065356;28;20190;-64
2022/09/18 14:15:25;;;;;;;12.10;2.43;;;;;;;;;;5052944;28;20699;-63
2022/09/18 14:18:17;;;;;;;14.20;2.47;;;;;;;;;;5063450;28;20228;-64
2022/09/18 14:20:50;;;;;;;12.77;2.23;;;;;;;;;;5079435;28;20196;-63
2022/09/18 14:23:41;;;;;;;17.40;2.07;;;;;;;;;;5065421;28;20616;-63
2022/09/18 14:26:36;;;;;;;18.83;1.93;;;;;;;;;;5062854;28;20193;-63
2022/09/18 14:29:09;;;;;;;11.83;2.17;;;;;;;;;;5064042;28;20232;-64
2022/09/18 14:31:52;;;;;;;11.73;1.87;;;;;;;;;;5063617;28;20212;-64
2022/09/18 14:34:42;;;;;;;21.17;1.93;;;;;;;;;;5065491;28;20197;-65
2022/09/18 14:37:31;;;;;;;18.50;2.00;;;;;;;;;;5052892;28;20205;-66
2022/09/18 14:40:11;;;;;;;16.07;2.40;;;;;;;;;;5066806;28;20228;-65
2022/09/18 14:42:41;;;;;;;12.17;1.87;;;;;;;;;;5087922;28;20241;-64
2022/09/18 14:45:20;;;;;;;10.47;2.07;;;;;;;;;;5050951;28;20198;-64
2022/09/18 14:47:51;;;;;;;11.83;2.13;;;;;;;;;;5065671;28;20229;-64
2022/09/18 14:50:29;;;;;;;14.17;1.80;;;;;;;;;;5047856;28;20248;-65
2022/09/18 14:53:02;;;;;;;9.70;1.63;;;;;;;;;;5057050;28;20222;-65
2022/09/18 14:55:40;;;;;;;10.50;2.50;;;;;;;;;;5071180;28;20216;-64
2022/09/18 14:58:19;;;;;;;10.87;2.13;;;;;;;;;;5047678;28;20812;-65
2022/09/18 15:00:57;;;;;;;10.30;1.70;;;;;;;;;;5067461;28;20246;-65
2022/09/18 15:03:34;;;;;;;16.13;2.70;;;;;;;;;;5062577;28;20206;-65
2022/09/18 15:06:08;;;;;;;12.13;2.10;;;;;;;;;;5051561;28;20234;-65
2022/09/18 15:08:40;;;;;;;13.47;2.30;;;;;;;;;;5058415;28;20198;-65
2022/09/18 15:11:15;;;;;;;8.47;1.97;;;;;;;;;;5035243;28;20656;-65
2022/09/18 15:13:45;;;;;;;15.30;2.10;;;;;;;;;;5070955;28;20558;-65
2022/09/18 15:16:20;;;;;;;12.93;2.33;;;;;;;;;;5038312;28;20214;-65
2022/09/18 15:18:55;;;;;;;10.23;1.80;;;;;;;;;;5042308;28;20218;-64
2022/09/18 15:21:32;;;;;;;6.87;1.80;;;;;;;;;;5045786;28;20206;-65
2022/09/18 15:24:14;;;;;;;12.70;2.93;;;;;;;;;;5044286;28;20214;-65
2022/09/18 15:26:54;;;;;;;7.80;1.90;;;;;;;;;;5024384;28;20651;-65
2022/09/18 15:29:30;;;;;;;11.10;1.67;;;;;;;;;;5013904;28;20220;-65
2022/09/18 15:31:59;;;;;;;6.40;1.40;;;;;;;;;;5044494;28;20259;-65
2022/09/18 15:34:34;;;;;;;14.43;1.90;;;;;;;;;;5035898;28;20202;-65
2022/09/18 15:37:07;;;;;;;7.87;1.30;;;;;;;;;;5054864;28;20588;-65
2022/09/18 15:39:37;;;;;;;9.27;2.07;;;;;;;;;;5026957;28;20230;-65